createdAt,value
2018-11-11T00:01:53.280Z,3.30
2018-11-11T00:04:21.627Z,3.07
2018-11-11T00:06:50.164Z,2.93
2018-11-11T00:09:18.420Z,2.80
2018-11-11T00:11:46.679Z,3.30
2018-11-11T00:14:14.953Z,3.13
2018-11-11T00:16:43.185Z,3.13
2018-11-11T00:19:11.440Z,3.37
2018-11-11T00:21:39.730Z,4.20
2018-11-11T00:24:08.028Z,3.80
2018-11-11T00:26:36.268Z,4.10
2018-11-11T00:29:04.571Z,4.47
2018-11-11T00:31:32.795Z,4.17
2018-11-11T00:34:01.077Z,4.57
2018-11-11T00:36:29.372Z,4.00
2018-11-11T00:38:58.513Z,4.00
2018-11-11T00:41:26.792Z,3.50
2018-11-11T00:43:55.095Z,3.70
2018-11-11T00:46:23.783Z,3.83
2018-11-11T00:48:52.074Z,3.40
2018-11-11T00:51:20.376Z,3.43
2018-11-11T00:53:48.658Z,3.73
2018-11-11T00:56:17.297Z,3.70
2018-11-11T00:58:45.580Z,3.53
2018-11-11T01:01:18.670Z,3.70
2018-11-11T01:03:46.932Z,3.50
2018-11-11T01:06:15.220Z,3.20
2018-11-11T01:08:43.509Z,3.47
2018-11-11T01:11:11.787Z,3.80
2018-11-11T01:13:40.032Z,3.60
2018-11-11T01:16:08.331Z,3.70
2018-11-11T01:18:36.614Z,3.43
2018-11-11T01:21:04.999Z,3.90
2018-11-11T01:23:33.274Z,3.23
2018-11-11T01:26:01.536Z,3.40
2018-11-11T01:31:24.044Z,3.60
2018-11-11T01:33:52.280Z,3.67
2018-11-11T01:36:20.542Z,3.40
2018-11-11T01:38:48.902Z,3.30
2018-11-11T01:41:17.172Z,3.80
2018-11-11T01:43:45.422Z,4.03
2018-11-11T01:46:13.647Z,3.40
2018-11-11T01:48:41.895Z,5.30
2018-11-11T01:51:10.140Z,4.87
2018-11-11T01:53:38.385Z,5.37
2018-11-11T01:56:06.957Z,4.47
2018-11-11T01:58:35.279Z,4.43
2018-11-11T02:01:03.589Z,4.90
2018-11-11T02:03:31.868Z,4.47
2018-11-11T02:06:00.520Z,4.40
2018-11-11T02:08:28.786Z,4.37
2018-11-11T02:10:57.311Z,4.43
2018-11-11T02:13:25.601Z,4.90
2018-11-11T02:18:47.795Z,4.67
2018-11-11T02:21:16.146Z,4.07
2018-11-11T02:23:44.308Z,4.77
2018-11-11T02:26:12.591Z,4.23
2018-11-11T02:28:40.883Z,4.20
2018-11-11T02:31:09.350Z,4.10
2018-11-11T02:33:37.656Z,4.40
2018-11-11T02:36:05.927Z,4.37
2018-11-11T02:38:34.218Z,4.13
2018-11-11T02:41:02.496Z,4.33
2018-11-11T02:43:30.769Z,4.10
2018-11-11T02:45:59.077Z,4.60
2018-11-11T02:48:27.692Z,4.20
2018-11-11T02:50:55.950Z,4.20
2018-11-11T02:53:24.289Z,4.40
2018-11-11T02:55:52.583Z,4.47
2018-11-11T02:58:20.895Z,4.13
2018-11-11T03:00:49.146Z,4.60
2018-11-11T03:03:17.632Z,4.70
2018-11-11T03:05:46.098Z,5.37
2018-11-11T03:08:14.364Z,6.10
2018-11-11T03:10:43.063Z,5.10
2018-11-11T03:13:11.314Z,4.77
2018-11-11T03:15:39.558Z,4.90
2018-11-11T03:18:08.166Z,5.10
2018-11-11T03:20:36.738Z,5.20
2018-11-11T03:23:05.662Z,5.27
2018-11-11T03:25:33.978Z,4.90
2018-11-11T03:28:02.288Z,4.80
2018-11-11T03:30:30.549Z,6.17
2018-11-11T03:32:58.833Z,5.83
2018-11-11T03:35:27.136Z,5.30
2018-11-11T03:37:55.388Z,5.17
2018-11-11T03:40:23.688Z,5.20
2018-11-11T03:42:52.009Z,5.10
2018-11-11T03:45:21.129Z,5.60
2018-11-11T03:47:50.522Z,4.67
2018-11-11T03:50:18.982Z,4.70
2018-11-11T03:52:47.398Z,4.67
2018-11-11T03:55:15.782Z,5.00
2018-11-11T03:57:44.075Z,5.00
2018-11-11T04:00:13.881Z,4.67
2018-11-11T04:02:42.150Z,5.97
2018-11-11T04:05:11.795Z,5.43
2018-11-11T04:07:40.350Z,5.13
2018-11-11T04:10:10.924Z,5.23
2018-11-11T04:12:39.465Z,4.87
2018-11-11T04:15:09.077Z,5.00
2018-11-11T04:17:37.971Z,4.73
2018-11-11T04:20:08.001Z,4.67
2018-11-11T04:22:36.262Z,4.30
2018-11-11T04:25:04.520Z,4.10
2018-11-11T04:27:32.825Z,3.90
2018-11-11T04:30:01.164Z,3.67
2018-11-11T04:32:29.454Z,2.97
2018-11-11T04:34:57.719Z,3.20
2018-11-11T04:37:25.995Z,3.13
2018-11-11T04:39:54.507Z,2.90
2018-11-11T04:42:22.732Z,3.00
2018-11-11T04:44:51.026Z,2.80
2018-11-11T04:47:19.342Z,3.03
2018-11-11T04:49:47.618Z,3.00
2018-11-11T04:52:15.878Z,2.90
2018-11-11T04:54:44.179Z,3.10
2018-11-11T04:57:12.486Z,3.20
2018-11-11T04:59:40.806Z,3.63
2018-11-11T05:02:09.898Z,3.43
2018-11-11T05:04:38.217Z,3.60
2018-11-11T05:07:06.763Z,3.73
2018-11-11T05:09:35.019Z,3.47
2018-11-11T05:12:03.265Z,3.20
2018-11-11T05:14:31.551Z,3.63
2018-11-11T05:16:59.851Z,3.23
2018-11-11T05:19:28.156Z,2.80
2018-11-11T05:21:56.510Z,2.77
2018-11-11T05:24:25.277Z,3.00
2018-11-11T05:26:53.596Z,2.80
2018-11-11T05:29:21.908Z,2.73
2018-11-11T05:31:50.508Z,3.00
2018-11-11T05:34:18.780Z,3.00
2018-11-11T05:36:47.079Z,3.80
2018-11-11T05:39:15.806Z,7.77
2018-11-11T05:41:44.072Z,11.30
2018-11-11T05:44:12.377Z,11.77
2018-11-11T05:46:40.690Z,9.30
2018-11-11T05:49:08.970Z,10.43
2018-11-11T05:51:37.273Z,10.07
2018-11-11T05:54:05.589Z,9.53
2018-11-11T05:56:34.155Z,9.27
2018-11-11T05:59:02.551Z,9.43
2018-11-11T06:01:30.858Z,9.73
2018-11-11T06:03:59.147Z,11.17
2018-11-11T06:06:27.471Z,11.67
2018-11-11T06:08:55.788Z,15.53
2018-11-11T06:11:24.453Z,16.73
2018-11-11T06:13:52.760Z,18.07
2018-11-11T06:16:21.030Z,25.10
2018-11-11T06:18:49.343Z,17.90
2018-11-11T06:21:17.980Z,17.93
2018-11-11T06:23:46.249Z,16.73
2018-11-11T06:26:14.510Z,13.90
2018-11-11T06:28:42.784Z,11.73
2018-11-11T06:31:11.061Z,9.97
2018-11-11T06:33:39.895Z,10.60
2018-11-11T06:36:08.205Z,9.53
2018-11-11T06:38:36.488Z,9.10
2018-11-11T06:41:04.947Z,8.63
2018-11-11T06:43:33.495Z,7.17
2018-11-11T06:46:02.135Z,8.40
2018-11-11T06:48:30.424Z,8.60
2018-11-11T06:50:58.734Z,7.60
2018-11-11T06:53:27.433Z,7.70
2018-11-11T06:55:55.735Z,7.00
2018-11-11T06:58:24.016Z,6.17
2018-11-11T07:00:52.324Z,6.77
2018-11-11T07:03:31.951Z,6.87
2018-11-11T07:06:00.251Z,6.47
2018-11-11T07:08:28.883Z,6.67
2018-11-11T07:10:57.186Z,6.43
2018-11-11T07:13:26.135Z,6.73
2018-11-11T07:15:54.411Z,5.70
2018-11-11T07:18:22.779Z,6.00
2018-11-11T07:21:05.707Z,5.43
2018-11-11T07:23:34.034Z,5.77
2018-11-11T07:26:02.665Z,4.90
2018-11-11T07:28:30.964Z,4.60
2018-11-11T07:30:59.309Z,5.07
2018-11-11T07:33:27.717Z,5.47
2018-11-11T07:35:56.229Z,5.20
2018-11-11T07:38:24.487Z,5.40
2018-11-11T07:40:52.825Z,5.10
2018-11-11T07:43:40.325Z,4.87
2018-11-11T07:46:08.606Z,5.00
2018-11-11T07:48:36.868Z,5.30
2018-11-11T07:51:05.312Z,4.80
2018-11-11T07:53:33.944Z,5.10
2018-11-11T07:56:02.219Z,5.50
2018-11-11T07:58:30.600Z,4.57
2018-11-11T08:00:59.200Z,4.90
2018-11-11T08:03:27.512Z,4.53
2018-11-11T08:05:55.771Z,4.23
2018-11-11T08:08:24.383Z,4.50
2018-11-11T08:11:04.062Z,4.13
2018-11-11T08:13:32.334Z,4.50
2018-11-11T08:16:00.591Z,3.97
2018-11-11T08:18:28.887Z,3.60
2018-11-11T08:20:57.171Z,3.70
2018-11-11T08:23:25.734Z,3.47
2018-11-11T08:25:54.071Z,3.00
2018-11-11T08:28:22.366Z,2.83
2018-11-11T08:30:50.897Z,2.70
2018-11-11T08:33:19.514Z,2.50
2018-11-11T08:35:47.839Z,2.40
2018-11-11T08:38:16.126Z,2.40
2018-11-11T08:40:52.737Z,2.23
2018-11-11T08:43:21.011Z,2.23
2018-11-11T08:45:50.161Z,2.23
2018-11-11T08:48:18.536Z,1.90
2018-11-11T08:50:46.927Z,1.90
2018-11-11T08:53:15.438Z,2.20
2018-11-11T08:55:43.734Z,2.70
2018-11-11T08:58:12.089Z,4.03
2018-11-11T09:00:40.310Z,3.77
2018-11-11T09:03:08.592Z,3.03
2018-11-11T09:05:36.873Z,1.70
2018-11-11T09:08:05.459Z,2.10
2018-11-11T09:10:33.760Z,1.30
2018-11-11T09:13:02.227Z,1.63
2018-11-11T09:15:30.538Z,1.57
2018-11-11T09:17:58.812Z,1.80
2018-11-11T09:20:27.416Z,1.50
2018-11-11T09:22:55.671Z,1.37
2018-11-11T09:25:24.013Z,1.37
2018-11-11T09:27:52.185Z,1.33
2018-11-11T09:30:20.491Z,2.00
2018-11-11T09:32:48.739Z,3.00
2018-11-11T09:35:17.040Z,4.47
2018-11-11T09:37:45.322Z,2.40
2018-11-11T09:40:13.857Z,1.80
2018-11-11T09:42:42.518Z,2.10
2018-11-11T09:45:12.650Z,1.80
2018-11-11T09:47:41.061Z,1.97
2018-11-11T09:50:11.167Z,1.50
2018-11-11T09:52:39.576Z,1.40
2018-11-11T09:55:08.649Z,1.60
2018-11-11T09:57:37.636Z,1.77
2018-11-11T10:00:09.094Z,1.43
2018-11-11T10:02:37.568Z,1.40
2018-11-11T10:05:11.544Z,1.30
2018-11-11T10:07:44.595Z,1.30
2018-11-11T10:10:33.721Z,1.27
2018-11-11T10:15:15.047Z,1.40
2018-11-11T10:17:50.695Z,2.07
2018-11-11T10:20:32.120Z,1.30
2018-11-11T10:23:04.989Z,1.07
2018-11-11T10:25:55.751Z,1.40
2018-11-11T10:29:28.243Z,1.00
2018-11-11T10:32:04.959Z,0.90
2018-11-11T10:34:40.832Z,1.13
2018-11-11T10:37:12.742Z,0.83
2018-11-11T10:39:44.741Z,1.00
2018-11-11T10:42:17.368Z,1.07
2018-11-11T10:44:56.848Z,0.97
2018-11-11T10:47:28.861Z,0.60
2018-11-11T10:49:59.679Z,0.60
2018-11-11T10:52:27.960Z,0.70
2018-11-11T10:54:56.332Z,0.50
2018-11-11T10:57:24.979Z,0.50
2018-11-11T10:59:53.261Z,0.90
2018-11-11T11:02:27.569Z,0.77
2018-11-11T11:05:01.182Z,0.43
2018-11-11T11:07:29.459Z,0.50
2018-11-11T11:09:57.747Z,0.80
2018-11-11T11:12:26.056Z,0.90
2018-11-11T11:14:54.362Z,0.80
2018-11-11T11:17:22.678Z,0.83
2018-11-11T11:19:51.007Z,0.73
2018-11-11T11:22:19.282Z,0.80
2018-11-11T11:24:47.595Z,0.80
2018-11-11T11:27:15.928Z,0.70
2018-11-11T11:29:44.133Z,0.97
2018-11-11T11:32:12.554Z,0.67
2018-11-11T11:34:40.777Z,0.77
2018-11-11T11:37:09.068Z,0.70
2018-11-11T11:39:37.740Z,0.80
2018-11-11T11:42:06.587Z,1.00
2018-11-11T11:44:34.882Z,0.77
2018-11-11T11:47:03.176Z,0.57
2018-11-11T11:49:31.465Z,0.80
2018-11-11T11:51:59.859Z,0.90
2018-11-11T11:54:28.373Z,0.70
2018-11-11T11:56:56.647Z,0.70
2018-11-11T11:59:24.968Z,0.80
2018-11-11T12:01:53.653Z,0.93
2018-11-11T12:04:21.944Z,1.00
2018-11-11T12:06:50.221Z,0.72
2018-11-11T12:09:18.549Z,0.90
2018-11-11T12:11:46.811Z,0.87
2018-11-11T12:14:15.141Z,0.65
2018-11-11T12:16:43.458Z,0.90
2018-11-11T12:19:11.751Z,0.70
2018-11-11T12:21:40.030Z,0.70
2018-11-11T12:24:08.372Z,0.80
2018-11-11T12:26:36.758Z,0.80
2018-11-11T12:29:05.079Z,0.90
2018-11-11T12:31:33.390Z,0.93
2018-11-11T12:34:01.663Z,0.72
2018-11-11T12:36:30.290Z,1.02
2018-11-11T12:38:58.836Z,0.80
2018-11-11T12:41:27.083Z,1.00
2018-11-11T12:43:55.383Z,0.75
2018-11-11T12:46:23.588Z,0.72
2018-11-11T12:48:51.928Z,0.80
2018-11-11T12:51:20.147Z,0.95
2018-11-11T12:53:48.418Z,1.20
2018-11-11T12:56:16.655Z,0.78
2018-11-11T12:58:44.969Z,0.93
2018-11-11T13:01:13.263Z,1.07
2018-11-11T13:03:41.513Z,1.00
2018-11-11T13:06:09.819Z,1.62
2018-11-11T13:08:38.084Z,1.70
2018-11-11T13:11:06.334Z,1.20
2018-11-11T13:13:34.585Z,1.02
2018-11-11T13:16:02.821Z,0.65
2018-11-11T13:18:31.187Z,1.10
2018-11-11T13:20:59.403Z,1.37
2018-11-11T13:23:27.693Z,1.70
2018-11-11T13:25:56.007Z,1.37
2018-11-11T13:28:24.305Z,1.50
2018-11-11T13:30:52.605Z,2.15
2018-11-11T13:33:20.935Z,1.50
2018-11-11T13:35:49.219Z,1.37
2018-11-11T13:38:17.510Z,1.80
2018-11-11T13:40:45.810Z,1.47
2018-11-11T13:43:14.157Z,1.27
2018-11-11T13:45:42.396Z,1.12
2018-11-11T13:48:10.773Z,1.30
2018-11-11T13:50:39.091Z,0.90
2018-11-11T13:53:07.409Z,1.37
2018-11-11T13:55:35.758Z,1.40
2018-11-11T13:58:04.068Z,0.80
2018-11-11T14:00:32.369Z,1.10
2018-11-11T14:03:00.696Z,1.00
2018-11-11T14:05:29.012Z,0.90
2018-11-11T14:07:57.336Z,0.80
2018-11-11T14:10:26.044Z,1.00
2018-11-11T14:12:54.280Z,1.27
2018-11-11T14:15:24.501Z,0.90
2018-11-11T14:17:53.411Z,1.00
2018-11-11T14:20:22.869Z,0.90
2018-11-11T14:22:51.908Z,0.82
2018-11-11T14:25:22.938Z,1.17
2018-11-11T14:27:51.162Z,0.90
2018-11-11T14:30:21.558Z,0.90
2018-11-11T14:32:50.715Z,1.20
2018-11-11T14:35:18.992Z,1.27
2018-11-11T14:37:47.600Z,1.35
2018-11-11T14:40:19.718Z,1.30
2018-11-11T14:42:48.056Z,1.37
2018-11-11T14:45:17.197Z,1.05
2018-11-11T14:47:46.560Z,1.05
2018-11-11T14:50:15.771Z,0.88
2018-11-11T14:52:44.778Z,0.68
2018-11-11T14:55:17.280Z,0.60
2018-11-11T14:57:45.529Z,0.70
2018-11-11T15:00:18.238Z,0.40
2018-11-11T15:02:50.904Z,0.60
2018-11-11T15:05:19.184Z,0.42
2018-11-11T15:07:47.585Z,0.33
2018-11-11T15:10:15.878Z,0.82
2018-11-11T15:12:44.189Z,0.55
2018-11-11T15:15:17.954Z,0.70
2018-11-11T15:17:47.153Z,0.65
2018-11-11T15:20:16.236Z,0.70
2018-11-11T15:22:45.016Z,0.60
2018-11-11T15:25:15.572Z,0.70
2018-11-11T15:27:44.347Z,0.80
2018-11-11T15:30:23.144Z,0.70
2018-11-11T15:32:52.024Z,0.78
2018-11-11T15:35:20.352Z,0.70
2018-11-11T15:37:49.012Z,0.50
2018-11-11T15:40:18.783Z,0.78
2018-11-11T15:42:47.101Z,0.70
2018-11-11T15:45:16.874Z,1.17
2018-11-11T15:47:45.216Z,0.88
2018-11-11T15:50:16.194Z,0.90
2018-11-11T15:52:46.977Z,1.37
2018-11-11T15:55:15.921Z,1.77
2018-11-11T15:57:44.217Z,2.50
2018-11-11T16:00:14.556Z,3.00
2018-11-11T16:02:43.216Z,2.98
2018-11-11T16:05:12.335Z,3.25
2018-11-11T16:07:41.440Z,3.20
2018-11-11T16:10:11.442Z,3.40
2018-11-11T16:12:39.748Z,3.22
2018-11-11T16:15:11.297Z,3.33
2018-11-11T16:17:39.650Z,3.55
2018-11-11T16:20:10.610Z,4.25
2018-11-11T16:22:38.879Z,3.90
2018-11-11T16:25:07.657Z,4.15
2018-11-11T16:27:36.239Z,3.70
2018-11-11T16:30:05.263Z,4.57
2018-11-11T16:32:33.591Z,4.80
2018-11-11T16:35:01.853Z,28.83
2018-11-11T16:37:30.194Z,54.30
2018-11-11T16:39:58.509Z,12.63
2018-11-11T16:42:27.216Z,15.50
2018-11-11T16:44:55.546Z,12.57
2018-11-11T16:47:23.845Z,8.43
2018-11-11T16:49:52.152Z,9.77
2018-11-11T16:52:20.505Z,8.40
2018-11-11T16:54:48.786Z,10.30
2018-11-11T16:57:17.095Z,7.60
2018-11-11T16:59:45.359Z,4.70
2018-11-11T17:02:13.645Z,3.30
2018-11-11T17:04:41.964Z,3.47
2018-11-11T17:07:10.221Z,3.47
2018-11-11T17:09:38.490Z,3.33
2018-11-11T17:12:07.000Z,2.60
2018-11-11T17:14:35.502Z,2.53
2018-11-11T17:17:03.784Z,2.20
2018-11-11T17:19:32.133Z,4.20
2018-11-11T17:22:00.948Z,8.17
2018-11-11T17:24:28.955Z,21.83
2018-11-11T17:26:57.287Z,32.63
2018-11-11T17:29:25.582Z,23.97
2018-11-11T17:31:53.880Z,25.23
2018-11-11T17:34:22.179Z,27.07
2018-11-11T17:36:50.868Z,31.53
2018-11-11T17:39:19.257Z,32.93
2018-11-11T17:41:47.577Z,33.00
2018-11-11T17:44:15.819Z,26.97
2018-11-11T17:46:44.149Z,26.63
2018-11-11T17:49:12.480Z,23.40
2018-11-11T17:51:41.281Z,15.17
2018-11-11T17:54:10.357Z,14.80
2018-11-11T17:56:38.655Z,7.23
2018-11-11T17:59:06.940Z,6.83
2018-11-11T18:01:35.272Z,7.20
2018-11-11T18:04:04.828Z,6.10
2018-11-11T18:06:33.172Z,6.17
2018-11-11T18:09:01.488Z,6.57
2018-11-11T18:11:29.831Z,6.10
2018-11-11T18:13:58.154Z,6.17
2018-11-11T18:16:26.851Z,5.07
2018-11-11T18:18:55.250Z,4.40
2018-11-11T18:21:23.598Z,3.97
2018-11-11T18:23:51.886Z,4.23
2018-11-11T18:26:20.707Z,3.53
2018-11-11T18:28:48.978Z,3.80
2018-11-11T18:31:17.259Z,3.00
2018-11-11T18:33:45.560Z,2.70
2018-11-11T18:36:13.844Z,2.87
2018-11-11T18:38:42.340Z,2.63
2018-11-11T18:41:10.900Z,2.10
2018-11-11T18:43:39.251Z,2.07
2018-11-11T18:46:07.867Z,2.70
2018-11-11T18:48:36.145Z,2.67
2018-11-11T18:51:04.444Z,3.73
2018-11-11T18:53:34.730Z,4.43
2018-11-11T18:56:03.478Z,4.60
2018-11-11T18:58:31.692Z,4.23
2018-11-11T19:01:00.316Z,4.17
2018-11-11T19:03:28.608Z,3.90
2018-11-11T19:05:56.928Z,4.23
2018-11-11T19:08:25.252Z,4.70
2018-11-11T19:10:53.736Z,4.40
2018-11-11T19:13:21.920Z,4.10
2018-11-11T19:15:50.404Z,3.63
2018-11-11T19:18:18.772Z,3.50
2018-11-11T19:20:47.124Z,3.90
2018-11-11T19:23:15.474Z,3.87
2018-11-11T19:25:43.789Z,3.30
2018-11-11T19:28:12.105Z,3.60
2018-11-11T19:30:40.808Z,3.50
2018-11-11T19:33:09.075Z,3.20
2018-11-11T19:35:37.588Z,4.20
2018-11-11T19:38:05.931Z,3.77
2018-11-11T19:40:34.223Z,3.40
2018-11-11T19:43:02.729Z,3.00
2018-11-11T19:45:31.981Z,2.83
2018-11-11T19:48:00.632Z,2.93
2018-11-11T19:50:29.545Z,2.83
2018-11-11T19:52:58.438Z,2.70
2018-11-11T19:55:26.741Z,2.70
2018-11-11T19:57:55.061Z,2.57
2018-11-11T20:00:25.972Z,2.07
2018-11-11T20:02:55.108Z,2.27
2018-11-11T20:05:23.936Z,2.27
2018-11-11T20:07:53.537Z,2.77
2018-11-11T20:10:22.668Z,2.70
2018-11-11T20:12:50.965Z,2.90
2018-11-11T20:15:21.766Z,2.23
2018-11-11T20:17:50.451Z,3.10
2018-11-11T20:20:20.407Z,3.10
2018-11-11T20:22:48.880Z,2.67
2018-11-11T20:25:18.059Z,2.50
2018-11-11T20:27:46.676Z,2.50
2018-11-11T20:30:17.299Z,2.50
2018-11-11T20:32:45.872Z,2.47
2018-11-11T20:35:15.519Z,2.60
2018-11-11T20:37:43.895Z,2.67
2018-11-11T20:40:13.462Z,2.70
2018-11-11T20:42:42.544Z,2.87
2018-11-11T20:45:11.824Z,7.43
2018-11-11T20:47:40.999Z,7.47
2018-11-11T20:50:12.642Z,6.13
2018-11-11T20:52:41.855Z,6.37
2018-11-11T20:55:10.853Z,8.03
2018-11-11T20:57:40.064Z,15.63
2018-11-11T21:00:10.315Z,10.93
2018-11-11T21:02:38.822Z,9.80
2018-11-11T21:05:08.824Z,6.50
2018-11-11T21:07:37.172Z,3.73
2018-11-11T21:10:07.460Z,4.43
2018-11-11T21:12:35.764Z,4.83
2018-11-11T21:15:04.165Z,4.43
2018-11-11T21:17:32.523Z,3.80
2018-11-11T21:20:00.833Z,4.10
2018-11-11T21:22:29.168Z,3.93
2018-11-11T21:24:57.435Z,4.23
2018-11-11T21:27:25.733Z,4.87
2018-11-11T21:29:54.014Z,3.50
2018-11-11T21:32:22.306Z,2.93
2018-11-11T21:34:50.628Z,3.60
2018-11-11T21:37:18.943Z,3.23
2018-11-11T21:39:47.277Z,3.07
2018-11-11T21:42:15.959Z,2.80
2018-11-11T21:44:44.364Z,2.93
2018-11-11T21:47:12.654Z,2.63
2018-11-11T21:49:41.366Z,2.20
2018-11-11T21:52:10.008Z,2.43
2018-11-11T21:54:38.332Z,2.30
2018-11-11T21:57:06.706Z,2.70
2018-11-11T21:59:35.100Z,2.20
2018-11-11T22:02:03.481Z,2.47
2018-11-11T22:04:31.794Z,2.50
2018-11-11T22:07:00.069Z,2.40
2018-11-11T22:09:28.437Z,2.43
2018-11-11T22:11:57.095Z,2.33
2018-11-11T22:14:25.387Z,2.10
2018-11-11T22:16:54.089Z,2.13
2018-11-11T22:19:22.388Z,2.00
2018-11-11T22:21:50.685Z,1.93
2018-11-11T22:24:18.961Z,2.10
2018-11-11T22:26:47.264Z,2.20
2018-11-11T22:29:16.369Z,2.40
2018-11-11T22:31:44.695Z,2.37
2018-11-11T22:34:13.000Z,2.20
2018-11-11T22:36:41.307Z,2.00
2018-11-11T22:39:10.703Z,2.10
2018-11-11T22:41:39.223Z,2.23
2018-11-11T22:44:08.626Z,2.10
2018-11-11T22:46:37.130Z,2.00
2018-11-11T22:49:05.649Z,1.80
2018-11-11T22:51:34.295Z,2.20
2018-11-11T22:54:02.608Z,1.77
2018-11-11T22:56:30.864Z,1.90
2018-11-11T22:58:59.159Z,2.10
2018-11-11T23:01:27.469Z,1.90
2018-11-11T23:03:55.751Z,2.33
2018-11-11T23:06:24.012Z,2.40
2018-11-11T23:08:52.316Z,2.50
2018-11-11T23:11:20.779Z,2.67
2018-11-11T23:13:49.079Z,2.97
2018-11-11T23:16:17.439Z,2.70
2018-11-11T23:18:45.659Z,2.97
2018-11-11T23:21:13.904Z,2.93
2018-11-11T23:23:42.589Z,2.40
2018-11-11T23:26:10.888Z,2.60
2018-11-11T23:28:39.536Z,2.50
2018-11-11T23:31:08.232Z,2.37
2018-11-11T23:33:36.636Z,2.80
2018-11-11T23:36:05.272Z,2.87
2018-11-11T23:38:33.552Z,2.43
2018-11-11T23:41:01.862Z,2.63
2018-11-11T23:43:30.159Z,3.07
2018-11-11T23:45:58.466Z,2.63
2018-11-11T23:48:26.762Z,2.90
2018-11-11T23:50:55.032Z,3.23
2018-11-11T23:53:23.305Z,3.10
2018-11-11T23:55:51.579Z,2.77
2018-11-11T23:58:19.872Z,3.10
